Time;durP1;ratioP1;P1;durP2;ratioP2;P2;SDS_P1;SDS_P2;PMS_P1;PMS_P2;Temp;Humidity;BMP_temperature;BMP_pressure;BME280_temperature;BME280_humidity;BME280_pressure;Samples;Min_cycle;Max_cycle;Signal;HPM_P1;HPM_P2
2021/08/12 00:00:29;;;;;;;261.80;171.75;;;;;;;;;;5289069;27;20047;-83
2021/08/12 00:02:58;;;;;;;264.17;173.73;;;;;;;;;;5288843;27;20418;-83
2021/08/12 00:05:27;;;;;;;323.38;205.77;;;;;;;;;;5271200;27;20090;-83
2021/08/12 00:07:56;;;;;;;320.00;207.55;;;;;;;;;;5291064;27;20050;-84
2021/08/12 00:10:24;;;;;;;328.88;207.20;;;;;;;;;;5290611;27;20045;-83
2021/08/12 00:12:52;;;;;;;318.55;206.07;;;;;;;;;;5290300;27;20041;-84
2021/08/12 00:15:22;;;;;;;269.30;176.40;;;;;;;;;;5291570;27;20117;-84
2021/08/12 00:17:52;;;;;;;266.98;180.37;;;;;;;;;;5287892;27;20025;-83
2021/08/12 00:20:20;;;;;;;261.48;177.27;;;;;;;;;;5289092;27;20367;-84
2021/08/12 00:22:48;;;;;;;255.45;174.87;;;;;;;;;;5289429;27;20089;-83
2021/08/12 00:25:17;;;;;;;227.57;181.93;;;;;;;;;;5289675;27;20442;-84
2021/08/12 00:27:53;;;;;;;223.82;181.48;;;;;;;;;;5290093;27;20073;-83
2021/08/12 00:30:22;;;;;;;255.62;190.38;;;;;;;;;;5290444;27;20423;-84
2021/08/12 00:32:50;;;;;;;257.55;168.13;;;;;;;;;;5288531;27;20025;-83
2021/08/12 00:35:19;;;;;;;255.87;166.12;;;;;;;;;;5291040;27;20053;-83
2021/08/12 00:37:48;;;;;;;257.23;167.82;;;;;;;;;;5291119;27;20052;-84
2021/08/12 00:40:18;;;;;;;261.90;167.50;;;;;;;;;;5291114;27;20499;-83
2021/08/12 00:42:47;;;;;;;257.90;167.13;;;;;;;;;;5288018;27;20061;-83
2021/08/12 00:45:16;;;;;;;302.27;199.85;;;;;;;;;;5292084;27;20036;-83
2021/08/12 00:47:44;;;;;;;307.77;204.77;;;;;;;;;;5290976;27;20001;-83
2021/08/12 00:50:14;;;;;;;305.92;202.73;;;;;;;;;;5292330;27;20022;-83
2021/08/12 00:52:43;;;;;;;308.75;204.13;;;;;;;;;;5289614;27;20489;-84
2021/08/12 00:55:12;;;;;;;211.10;166.35;;;;;;;;;;5290847;27;20059;-84
2021/08/12 00:57:41;;;;;;;211.98;169.62;;;;;;;;;;5290475;27;20028;-84
2021/08/12 01:00:10;;;;;;;214.43;167.48;;;;;;;;;;5288701;27;20391;-83
2021/08/12 01:02:39;;;;;;;239.98;159.85;;;;;;;;;;5290267;27;20022;-84
2021/08/12 01:05:12;;;;;;;235.70;159.43;;;;;;;;;;5292010;27;20045;-84
2021/08/12 01:07:42;;;;;;;261.23;176.68;;;;;;;;;;5290797;27;20057;-83
2021/08/12 01:10:29;;;;;;;264.55;181.27;;;;;;;;;;5291053;27;20450;-84
2021/08/12 01:13:10;;;;;;;258.00;176.12;;;;;;;;;;5290627;27;20022;-83
2021/08/12 01:15:43;;;;;;;256.65;179.12;;;;;;;;;;5291955;27;20072;-84
2021/08/12 01:18:11;;;;;;;257.23;176.87;;;;;;;;;;5271188;27;20430;-84
2021/08/12 01:20:40;;;;;;;256.52;178.18;;;;;;;;;;5289574;27;20474;-84
2021/08/12 01:23:13;;;;;;;251.68;174.25;;;;;;;;;;5290843;27;20200;-83
2021/08/12 01:25:43;;;;;;;300.48;197.45;;;;;;;;;;5289808;27;20101;-83
2021/08/12 01:28:13;;;;;;;288.92;192.62;;;;;;;;;;5270986;27;20034;-84
2021/08/12 01:30:50;;;;;;;290.55;192.10;;;;;;;;;;5269326;27;20018;-83
2021/08/12 01:33:54;;;;;;;204.15;171.87;;;;;;;;;;5291905;27;20378;-84
2021/08/12 01:36:23;;;;;;;204.40;173.48;;;;;;;;;;5245356;27;20089;-84
2021/08/12 01:38:52;;;;;;;204.87;174.85;;;;;;;;;;5284390;27;20361;-83
2021/08/12 01:41:21;;;;;;;215.77;176.00;;;;;;;;;;5292663;27;20017;-83
2021/08/12 01:43:51;;;;;;;216.43;172.82;;;;;;;;;;5290515;27;20411;-84
2021/08/12 01:46:23;;;;;;;297.10;203.73;;;;;;;;;;5268665;27;20045;-83
2021/08/12 01:48:53;;;;;;;296.42;201.82;;;;;;;;;;5292237;27;20414;-83
2021/08/12 01:51:26;;;;;;;293.35;202.27;;;;;;;;;;5291114;27;20087;-84
2021/08/12 01:53:55;;;;;;;237.05;156.77;;;;;;;;;;5290517;27;20025;-84
2021/08/12 01:56:24;;;;;;;247.43;166.05;;;;;;;;;;5289417;27;20045;-83
2021/08/12 01:58:54;;;;;;;239.23;161.90;;;;;;;;;;5287598;27;20037;-83
2021/08/12 02:01:23;;;;;;;235.55;157.37;;;;;;;;;;5289176;27;20051;-84
2021/08/12 02:03:53;;;;;;;291.98;193.32;;;;;;;;;;5291258;27;20332;-83
2021/08/12 02:06:22;;;;;;;283.27;190.52;;;;;;;;;;5287647;27;20090;-84
2021/08/12 02:08:51;;;;;;;241.95;166.93;;;;;;;;;;5281870;27;20051;-84
2021/08/12 02:11:20;;;;;;;203.95;154.27;;;;;;;;;;5290072;27;20063;-83
2021/08/12 02:13:48;;;;;;;226.68;155.73;;;;;;;;;;5290128;27;20456;-84
2021/08/12 02:16:16;;;;;;;226.37;160.77;;;;;;;;;;5291299;27;20065;-83
2021/08/12 02:18:45;;;;;;;228.27;159.98;;;;;;;;;;5292469;27;20025;-83
2021/08/12 02:21:17;;;;;;;196.20;163.80;;;;;;;;;;5292487;27;20041;-83
2021/08/12 02:24:01;;;;;;;280.67;194.35;;;;;;;;;;5292995;27;20068;-83
2021/08/12 02:26:35;;;;;;;279.13;190.02;;;;;;;;;;5287438;27;20061;-83
2021/08/12 02:29:05;;;;;;;262.65;182.80;;;;;;;;;;5289371;27;20066;-84
2021/08/12 02:31:35;;;;;;;226.05;150.70;;;;;;;;;;5293083;27;20021;-84
2021/08/12 02:34:04;;;;;;;221.10;149.15;;;;;;;;;;5291583;27;20486;-83
2021/08/12 02:36:33;;;;;;;217.77;147.23;;;;;;;;;;5269602;27;20086;-83
2021/08/12 02:39:04;;;;;;;216.00;145.68;;;;;;;;;;5289022;27;20041;-84
2021/08/12 02:41:33;;;;;;;218.90;147.35;;;;;;;;;;5291811;27;20522;-83
2021/08/12 02:44:02;;;;;;;263.62;186.73;;;;;;;;;;5273407;27;20385;-84
2021/08/12 02:46:31;;;;;;;192.00;155.80;;;;;;;;;;5289393;27;20566;-83
2021/08/12 02:49:00;;;;;;;198.87;152.20;;;;;;;;;;5285747;27;20442;-84
2021/08/12 02:51:32;;;;;;;188.87;151.05;;;;;;;;;;5273373;27;20093;-84
2021/08/12 02:54:01;;;;;;;183.95;152.25;;;;;;;;;;5291922;27;20010;-84
2021/08/12 02:56:30;;;;;;;185.18;151.77;;;;;;;;;;5287128;27;20096;-83
2021/08/12 02:58:58;;;;;;;206.80;152.27;;;;;;;;;;5287458;27;20051;-84
2021/08/12 03:01:27;;;;;;;213.05;142.52;;;;;;;;;;5291055;27;20080;-84
2021/08/12 03:03:56;;;;;;;208.93;141.00;;;;;;;;;;5291694;27;20415;-84
2021/08/12 03:06:25;;;;;;;207.55;139.52;;;;;;;;;;5289598;27;20032;-83
2021/08/12 03:08:55;;;;;;;209.68;141.52;;;;;;;;;;5288030;27;20063;-84
2021/08/12 10:06:30;;;;;;;250.65;189.30;;;;;;;;;;5288485;27;20398;-83
2021/08/12 10:09:14;;;;;;;207.43;175.32;;;;;;;;;;5275022;27;20106;-83
2021/08/12 10:11:43;;;;;;;107.53;97.27;;;;;;;;;;5295209;27;20005;-83
2021/08/12 10:14:12;;;;;;;30.37;27.55;;;;;;;;;;5295335;27;20176;-83
2021/08/12 10:16:41;;;;;;;12.60;11.68;;;;;;;;;;5277176;27;20040;-84
2021/08/12 10:19:11;;;;;;;4.97;2.15;;;;;;;;;;5295288;27;20028;-84
2021/08/12 10:21:43;;;;;;;3.67;1.70;;;;;;;;;;5295139;27;20053;-83
2021/08/12 10:24:13;;;;;;;5.12;1.30;;;;;;;;;;5293743;27;20415;-83
2021/08/12 10:26:44;;;;;;;2.75;1.20;;;;;;;;;;5292678;27;20460;-83
2021/08/12 10:29:14;;;;;;;2.50;0.95;;;;;;;;;;5294499;27;20098;-83
2021/08/12 10:31:47;;;;;;;3.22;1.12;;;;;;;;;;5296477;27;20363;-83
2021/08/12 10:34:15;;;;;;;2.25;1.10;;;;;;;;;;5294804;27;20044;-83
2021/08/12 10:36:48;;;;;;;2.53;1.10;;;;;;;;;;5295487;27;20025;-84
2021/08/12 10:39:18;;;;;;;4.50;1.62;;;;;;;;;;5295893;27;20010;-83
2021/08/12 10:41:47;;;;;;;3.35;1.33;;;;;;;;;;5296578;27;20025;-83
2021/08/12 10:44:18;;;;;;;4.37;1.60;;;;;;;;;;5294631;27;20023;-83
2021/08/12 10:46:47;;;;;;;3.35;1.23;;;;;;;;;;5295838;27;20070;-83
2021/08/12 10:49:25;;;;;;;2.05;1.15;;;;;;;;;;5295319;27;20378;-83
2021/08/12 10:52:02;;;;;;;2.53;1.40;;;;;;;;;;5293873;27;20343;-85
2021/08/12 10:54:32;;;;;;;4.43;1.65;;;;;;;;;;5293693;27;20043;-83
2021/08/12 10:57:13;;;;;;;2.78;1.27;;;;;;;;;;5294520;27;20026;-83
2021/08/12 10:59:42;;;;;;;5.87;4.28;;;;;;;;;;5294322;27;20053;-83
2021/08/12 11:02:27;;;;;;;14.00;13.07;;;;;;;;;;5275932;27;20195;-83
2021/08/12 11:04:57;;;;;;;35.10;33.20;;;;;;;;;;5295501;27;20025;-84
2021/08/12 11:07:46;;;;;;;51.15;48.25;;;;;;;;;;5296128;27;20354;-84
2021/08/12 11:10:15;;;;;;;11.32;10.57;;;;;;;;;;5292986;27;20013;-84
2021/08/12 11:12:57;;;;;;;7.35;6.85;;;;;;;;;;5294728;27;20049;-83
2021/08/12 11:15:39;;;;;;;6.18;2.62;;;;;;;;;;5273888;27;20078;-83
2021/08/12 11:18:11;;;;;;;4.20;1.40;;;;;;;;;;5292592;27;20026;-83
2021/08/12 11:20:40;;;;;;;1.50;0.73;;;;;;;;;;5295217;27;20006;-83
2021/08/12 11:23:21;;;;;;;4.12;0.80;;;;;;;;;;5276028;27;20783;-84
2021/08/12 11:26:01;;;;;;;6.20;1.10;;;;;;;;;;5293088;27;20055;-83
2021/08/12 11:28:39;;;;;;;2.78;1.20;;;;;;;;;;5295173;27;20034;-83
2021/08/12 11:31:08;;;;;;;3.08;0.88;;;;;;;;;;5294451;27;20948;-83
2021/08/12 11:33:59;;;;;;;3.10;0.90;;;;;;;;;;5295422;27;20054;-83
2021/08/12 11:36:29;;;;;;;2.42;1.00;;;;;;;;;;5293130;27;20309;-83
2021/08/12 11:39:01;;;;;;;6.53;1.42;;;;;;;;;;5294006;27;20045;-82
2021/08/12 11:41:35;;;;;;;1.17;0.88;;;;;;;;;;5293345;27;20047;-83
2021/08/12 11:44:12;;;;;;;2.78;1.10;;;;;;;;;;5296041;27;20408;-83
2021/08/12 11:46:41;;;;;;;2.33;0.95;;;;;;;;;;5293226;27;20480;-84
2021/08/12 11:49:13;;;;;;;3.47;1.00;;;;;;;;;;5293725;27;20029;-83
2021/08/12 11:51:41;;;;;;;3.22;1.00;;;;;;;;;;5295513;27;20176;-83
2021/08/12 11:54:11;;;;;;;2.10;0.90;;;;;;;;;;5291644;27;20880;-84
2021/08/12 11:56:39;;;;;;;4.55;0.93;;;;;;;;;;5272331;27;20022;-83
2021/08/12 11:59:09;;;;;;;8.43;1.35;;;;;;;;;;5290993;27;20024;-83
2021/08/12 12:01:38;;;;;;;2.10;0.90;;;;;;;;;;5293528;27;20461;-84
2021/08/12 12:04:08;;;;;;;3.10;0.82;;;;;;;;;;5295097;27;20025;-84
2021/08/12 12:06:40;;;;;;;2.83;0.90;;;;;;;;;;5294417;27;20029;-83
2021/08/12 12:09:21;;;;;;;3.83;0.93;;;;;;;;;;5289905;27;20044;-83
2021/08/12 12:11:56;;;;;;;4.72;1.00;;;;;;;;;;5294324;27;20050;-83
2021/08/12 12:14:26;;;;;;;4.40;0.90;;;;;;;;;;5292009;27;20033;-82
2021/08/12 12:17:07;;;;;;;4.07;1.33;;;;;;;;;;5291410;27;20053;-83
2021/08/12 12:19:37;;;;;;;1.77;0.80;;;;;;;;;;5293321;27;20025;-83
2021/08/12 12:22:15;;;;;;;1.98;0.80;;;;;;;;;;5293873;27;20411;-84
2021/08/12 12:24:45;;;;;;;1.73;1.00;;;;;;;;;;5292511;27;20040;-84
2021/08/12 12:27:19;;;;;;;2.80;1.00;;;;;;;;;;5293740;27;20021;-84
2021/08/12 12:29:50;;;;;;;3.12;1.35;;;;;;;;;;5289189;27;20033;-85
2021/08/12 12:32:19;;;;;;;2.08;0.93;;;;;;;;;;5269755;27;20013;-84
2021/08/12 12:34:52;;;;;;;3.37;1.00;;;;;;;;;;5284953;27;20086;-84
2021/08/12 12:37:21;;;;;;;4.50;0.90;;;;;;;;;;5279755;27;20437;-85
2021/08/12 12:39:50;;;;;;;1.92;0.90;;;;;;;;;;5281107;27;20056;-85
2021/08/12 12:42:35;;;;;;;2.55;0.90;;;;;;;;;;5289396;27;20368;-84
2021/08/12 12:45:06;;;;;;;4.55;1.25;;;;;;;;;;5294185;27;20052;-84
2021/08/12 12:47:35;;;;;;;1.90;1.00;;;;;;;;;;5292779;27;20017;-84
2021/08/12 12:50:04;;;;;;;2.17;1.20;;;;;;;;;;5293773;27;20061;-83
2021/08/12 12:52:32;;;;;;;3.78;1.35;;;;;;;;;;5291216;27;20395;-84
2021/08/12 12:55:01;;;;;;;3.55;1.35;;;;;;;;;;5293258;27;20013;-84
2021/08/12 12:57:33;;;;;;;2.05;0.98;;;;;;;;;;5271973;27;20100;-85
2021/08/12 13:00:02;;;;;;;2.37;0.98;;;;;;;;;;5289046;27;20005;-85
2021/08/12 13:02:31;;;;;;;3.47;1.02;;;;;;;;;;5291156;27;20025;-84
2021/08/12 13:05:01;;;;;;;3.80;1.10;;;;;;;;;;5289038;27;20022;-83
2021/08/12 13:07:29;;;;;;;4.55;0.98;;;;;;;;;;5288213;27;20043;-83
2021/08/12 13:09:58;;;;;;;4.70;1.27;;;;;;;;;;5282440;27;20041;-84
2021/08/12 13:12:34;;;;;;;4.15;1.20;;;;;;;;;;5250475;27;20051;-83
2021/08/12 13:15:11;;;;;;;5.05;1.17;;;;;;;;;;5289789;27;20359;-84
2021/08/12 13:17:39;;;;;;;4.97;1.35;;;;;;;;;;5269772;27;20043;-84
2021/08/12 13:20:14;;;;;;;2.72;1.30;;;;;;;;;;5289764;27;20121;-84
2021/08/12 13:22:43;;;;;;;5.15;1.45;;;;;;;;;;5289720;27;20017;-84
2021/08/12 13:25:12;;;;;;;4.62;1.37;;;;;;;;;;5287318;27;20045;-84
2021/08/12 13:27:42;;;;;;;4.43;1.50;;;;;;;;;;5266327;27;20043;-84
2021/08/12 13:30:11;;;;;;;2.97;1.40;;;;;;;;;;5270637;27;20580;-84
2021/08/12 13:32:39;;;;;;;3.20;1.17;;;;;;;;;;5271696;27;20438;-84
2021/08/12 13:35:09;;;;;;;5.60;1.45;;;;;;;;;;5290471;27;20120;-84
2021/08/12 13:37:37;;;;;;;5.53;1.20;;;;;;;;;;5288124;27;20405;-84
2021/08/12 13:40:06;;;;;;;3.10;1.20;;;;;;;;;;5289484;27;20090;-84
2021/08/12 13:42:35;;;;;;;3.97;1.08;;;;;;;;;;5287027;27;20056;-84
2021/08/12 13:45:03;;;;;;;3.28;1.17;;;;;;;;;;5288597;27;20076;-84
2021/08/12 13:47:31;;;;;;;3.33;1.42;;;;;;;;;;5289793;27;20094;-84
2021/08/12 13:50:00;;;;;;;7.55;1.35;;;;;;;;;;5290739;27;20487;-84
2021/08/12 13:52:29;;;;;;;4.50;1.67;;;;;;;;;;5289620;27;20044;-83
2021/08/12 13:54:57;;;;;;;7.18;1.58;;;;;;;;;;5290607;27;20062;-85
2021/08/12 13:57:26;;;;;;;4.32;1.70;;;;;;;;;;5285122;27;20052;-83
2021/08/12 13:59:54;;;;;;;7.90;2.00;;;;;;;;;;5287569;27;20053;-84
2021/08/12 14:02:22;;;;;;;4.95;1.40;;;;;;;;;;5284995;27;20056;-83
2021/08/12 14:04:51;;;;;;;4.40;1.37;;;;;;;;;;5287806;27;20722;-85
2021/08/12 14:07:22;;;;;;;3.35;1.35;;;;;;;;;;5290410;27;20037;-84
2021/08/12 14:09:51;;;;;;;6.75;1.62;;;;;;;;;;5290185;27;20024;-84
2021/08/12 14:12:20;;;;;;;3.67;1.55;;;;;;;;;;5289559;27;20036;-84
2021/08/12 14:14:48;;;;;;;5.68;1.58;;;;;;;;;;5273062;27;20414;-84
2021/08/12 14:17:17;;;;;;;3.85;1.58;;;;;;;;;;5263615;27;20481;-83
2021/08/12 14:19:46;;;;;;;6.47;1.73;;;;;;;;;;5285215;27;20025;-85
2021/08/12 14:22:14;;;;;;;7.18;2.12;;;;;;;;;;5288441;27;20103;-85
2021/08/12 14:24:43;;;;;;;7.40;1.75;;;;;;;;;;5287332;27;20021;-84
2021/08/12 14:27:11;;;;;;;7.62;1.80;;;;;;;;;;5264530;27;20570;-84
2021/08/12 14:29:39;;;;;;;8.65;1.90;;;;;;;;;;5283194;27;20018;-85
2021/08/12 14:32:10;;;;;;;4.40;1.55;;;;;;;;;;5281497;27;20060;-85
2021/08/12 14:34:38;;;;;;;6.55;1.80;;;;;;;;;;5287032;27;20016;-85
2021/08/12 14:37:07;;;;;;;6.85;2.05;;;;;;;;;;5290577;27;20029;-84
2021/08/12 14:39:35;;;;;;;6.22;1.92;;;;;;;;;;5292070;27;20026;-84
2021/08/12 14:42:04;;;;;;;11.35;2.00;;;;;;;;;;5288626;27;20318;-85
2021/08/12 14:44:32;;;;;;;5.55;1.80;;;;;;;;;;5291988;27;20016;-85
2021/08/12 14:47:01;;;;;;;4.57;1.80;;;;;;;;;;5289271;27;20474;-84
2021/08/12 14:49:30;;;;;;;8.38;1.90;;;;;;;;;;5287759;27;20457;-84
2021/08/12 14:51:59;;;;;;;6.55;1.98;;;;;;;;;;5288665;27;20025;-85
2021/08/12 14:54:27;;;;;;;2.90;1.48;;;;;;;;;;5268844;27;20033;-84
2021/08/12 14:56:56;;;;;;;5.87;1.95;;;;;;;;;;5290858;27;20025;-84
2021/08/12 14:59:24;;;;;;;5.35;2.10;;;;;;;;;;5288573;27;20068;-85
2021/08/12 15:01:53;;;;;;;5.75;2.10;;;;;;;;;;5268944;27;20040;-84
2021/08/12 15:04:21;;;;;;;4.68;1.85;;;;;;;;;;5291302;27;20072;-84
2021/08/12 15:06:49;;;;;;;4.90;2.00;;;;;;;;;;5285418;27;20231;-84
2021/08/12 15:09:18;;;;;;;5.62;2.47;;;;;;;;;;5288235;27;20088;-84
2021/08/12 15:11:47;;;;;;;8.73;2.40;;;;;;;;;;5289089;27;20017;-85
2021/08/12 15:14:15;;;;;;;6.28;1.85;;;;;;;;;;5268766;27;20058;-84
2021/08/12 15:16:44;;;;;;;8.43;2.78;;;;;;;;;;5266953;27;20346;-84
2021/08/12 15:19:13;;;;;;;8.57;2.62;;;;;;;;;;5287931;27;20107;-85
2021/08/12 15:21:41;;;;;;;6.00;1.92;;;;;;;;;;5289599;27;20021;-84
2021/08/12 15:24:10;;;;;;;8.38;2.50;;;;;;;;;;5288244;27;20569;-84
2021/08/12 15:26:38;;;;;;;6.90;2.97;;;;;;;;;;5287444;27;20096;-84
2021/08/12 15:29:06;;;;;;;5.30;2.70;;;;;;;;;;5269352;27;20622;-84
2021/08/12 15:31:35;;;;;;;8.73;2.65;;;;;;;;;;5290108;27;20061;-84
2021/08/12 15:34:04;;;;;;;7.45;2.75;;;;;;;;;;5290535;27;20077;-84
2021/08/12 15:36:32;;;;;;;9.27;2.90;;;;;;;;;;5266163;27;20439;-84
2021/08/12 15:39:01;;;;;;;6.53;2.40;;;;;;;;;;5290380;27;20324;-84
2021/08/12 15:41:29;;;;;;;7.03;2.30;;;;;;;;;;5289456;27;20026;-84
2021/08/12 15:43:57;;;;;;;8.82;2.90;;;;;;;;;;5269292;27;20119;-83
2021/08/12 15:46:26;;;;;;;9.50;2.65;;;;;;;;;;5288009;27;20028;-84
2021/08/12 15:48:54;;;;;;;11.07;2.72;;;;;;;;;;5289214;27;20392;-84
2021/08/12 15:51:23;;;;;;;10.82;3.03;;;;;;;;;;5269643;27;20080;-83
2021/08/12 15:53:53;;;;;;;8.75;2.70;;;;;;;;;;5269735;27;20095;-83
2021/08/12 15:56:21;;;;;;;8.18;2.67;;;;;;;;;;5289169;27;20026;-84
2021/08/12 15:58:49;;;;;;;10.70;3.05;;;;;;;;;;5292132;27;20033;-84
2021/08/12 16:01:18;;;;;;;6.10;2.40;;;;;;;;;;5271556;27;20066;-85
2021/08/12 16:03:47;;;;;;;9.68;2.62;;;;;;;;;;5289320;27;20033;-84
2021/08/12 16:06:15;;;;;;;10.50;2.55;;;;;;;;;;5291082;27;20537;-83
2021/08/12 16:08:43;;;;;;;7.37;2.30;;;;;;;;;;5291258;27;20092;-85
2021/08/12 16:11:12;;;;;;;5.22;2.05;;;;;;;;;;5292398;27;20045;-84
2021/08/12 16:13:40;;;;;;;12.15;2.90;;;;;;;;;;5290836;27;20083;-84
2021/08/12 16:16:08;;;;;;;12.15;2.78;;;;;;;;;;5271295;27;20012;-83
2021/08/12 16:18:37;;;;;;;9.88;2.97;;;;;;;;;;5272442;27;20063;-83
2021/08/12 16:21:19;;;;;;;7.32;2.70;;;;;;;;;;5293840;27;20020;-83
2021/08/12 16:23:48;;;;;;;8.35;2.78;;;;;;;;;;5290954;27;20025;-85
2021/08/12 16:26:16;;;;;;;6.72;2.37;;;;;;;;;;5293760;27;20066;-84
2021/08/12 16:28:46;;;;;;;8.40;2.97;;;;;;;;;;5293453;27;20100;-83
2021/08/12 16:31:20;;;;;;;8.40;2.80;;;;;;;;;;5291892;27;20026;-83
2021/08/12 16:33:49;;;;;;;19.87;3.50;;;;;;;;;;5293104;27;20071;-83
2021/08/12 16:36:18;;;;;;;8.13;3.05;;;;;;;;;;5292304;27;20040;-83
2021/08/12 16:38:46;;;;;;;12.37;3.30;;;;;;;;;;5292471;27;20021;-85
2021/08/12 16:41:15;;;;;;;10.55;8.60;;;;;;;;;;5273214;27;20091;-84
2021/08/12 16:43:43;;;;;;;10.40;6.95;;;;;;;;;;5272001;27;20415;-84
2021/08/12 16:46:12;;;;;;;8.35;5.60;;;;;;;;;;5293396;27;20043;-84
2021/08/12 16:48:40;;;;;;;19.80;17.95;;;;;;;;;;5292521;27;20034;-84
2021/08/12 16:51:09;;;;;;;7.60;5.37;;;;;;;;;;5292588;27;20511;-83
2021/08/12 16:53:37;;;;;;;21.73;19.95;;;;;;;;;;5292467;27;20082;-84
2021/08/12 16:56:05;;;;;;;25.50;23.50;;;;;;;;;;5294111;27;20009;-84
2021/08/12 16:58:34;;;;;;;11.52;7.90;;;;;;;;;;5291982;27;20057;-84
2021/08/12 17:01:03;;;;;;;13.48;10.05;;;;;;;;;;5291930;27;20028;-83
2021/08/12 17:03:35;;;;;;;19.83;17.98;;;;;;;;;;5293629;27;20066;-83
2021/08/12 17:06:18;;;;;;;14.82;12.90;;;;;;;;;;5294186;27;20062;-83
2021/08/12 17:08:47;;;;;;;26.77;24.92;;;;;;;;;;5292194;27;20026;-84
2021/08/12 17:11:16;;;;;;;61.15;57.58;;;;;;;;;;5290360;27;20017;-84
2021/08/12 17:13:44;;;;;;;35.08;32.45;;;;;;;;;;5293290;27;20031;-83
2021/08/12 17:16:13;;;;;;;52.58;49.25;;;;;;;;;;5293014;27;20029;-84
2021/08/12 17:18:41;;;;;;;52.17;48.92;;;;;;;;;;5291822;27;20065;-84
2021/08/12 17:21:10;;;;;;;76.40;72.00;;;;;;;;;;5291749;27;20021;-84
2021/08/12 17:23:38;;;;;;;62.38;58.50;;;;;;;;;;5293914;27;20840;-83
2021/08/12 17:26:07;;;;;;;75.28;70.85;;;;;;;;;;5272686;27;20013;-84
2021/08/12 17:28:35;;;;;;;74.50;70.20;;;;;;;;;;5293332;27;20025;-83
2021/08/12 17:31:04;;;;;;;13.77;12.68;;;;;;;;;;5272030;27;20048;-83
2021/08/12 17:33:32;;;;;;;13.73;11.25;;;;;;;;;;5292249;27;20044;-84
2021/08/12 17:36:02;;;;;;;11.07;9.85;;;;;;;;;;5293498;27;20120;-84
2021/08/12 17:38:31;;;;;;;14.87;7.75;;;;;;;;;;5292274;27;20043;-83
2021/08/12 17:40:59;;;;;;;12.43;8.32;;;;;;;;;;5291976;27;20352;-84
2021/08/12 17:43:28;;;;;;;12.05;6.45;;;;;;;;;;5293103;27;20052;-84
2021/08/12 17:46:03;;;;;;;14.68;7.93;;;;;;;;;;5290586;27;20097;-83
2021/08/12 17:48:32;;;;;;;19.35;13.43;;;;;;;;;;5294411;27;20014;-83
2021/08/12 17:51:00;;;;;;;36.92;34.40;;;;;;;;;;5291622;27;20048;-83
2021/08/12 17:53:29;;;;;;;91.50;86.45;;;;;;;;;;5286265;27;20045;-84
2021/08/12 17:55:58;;;;;;;98.65;93.25;;;;;;;;;;5291405;27;20064;-84
2021/08/12 17:58:27;;;;;;;102.60;96.65;;;;;;;;;;5288614;27;20017;-85
2021/08/12 18:00:56;;;;;;;99.37;93.05;;;;;;;;;;5291270;27;20067;-84
2021/08/12 18:03:26;;;;;;;105.10;96.85;;;;;;;;;;5292804;27;20021;-83
2021/08/12 18:05:54;;;;;;;122.25;113.53;;;;;;;;;;5292052;27;20415;-84
2021/08/12 18:08:22;;;;;;;108.45;100.03;;;;;;;;;;5289881;27;20490;-84
2021/08/12 18:10:51;;;;;;;95.25;87.15;;;;;;;;;;5293926;27;20108;-84
2021/08/12 18:13:24;;;;;;;86.03;79.00;;;;;;;;;;5292434;27;20005;-88
2021/08/12 18:15:54;;;;;;;228.65;209.18;;;;;;;;;;5293241;27;20044;-85
2021/08/12 18:18:22;;;;;;;160.30;145.93;;;;;;;;;;5265820;27;20059;-85
2021/08/12 18:20:51;;;;;;;202.90;183.98;;;;;;;;;;5287902;27;20048;-85
2021/08/12 18:23:19;;;;;;;187.27;170.18;;;;;;;;;;5289757;27;20062;-84
2021/08/12 18:25:48;;;;;;;205.60;186.23;;;;;;;;;;5290816;27;20423;-84
2021/08/12 18:28:16;;;;;;;226.68;204.35;;;;;;;;;;5286884;27;20575;-84
2021/08/12 18:30:45;;;;;;;248.27;227.38;;;;;;;;;;5288218;27;20097;-84
2021/08/12 18:33:13;;;;;;;218.20;198.15;;;;;;;;;;5271346;27;20053;-85
2021/08/12 18:35:41;;;;;;;225.48;201.68;;;;;;;;;;5291964;27;20464;-85
2021/08/12 18:38:10;;;;;;;240.27;215.25;;;;;;;;;;5289361;27;20067;-85
2021/08/12 18:40:39;;;;;;;217.23;198.32;;;;;;;;;;5267010;27;20037;-83
2021/08/12 18:43:08;;;;;;;235.55;214.23;;;;;;;;;;5287931;27;20371;-85
2021/08/12 18:45:37;;;;;;;254.15;229.52;;;;;;;;;;5268777;27;20032;-84
2021/08/12 18:48:05;;;;;;;260.77;235.98;;;;;;;;;;5284243;27;20052;-84
2021/08/12 18:50:33;;;;;;;258.45;233.02;;;;;;;;;;5288345;27;20055;-85
2021/08/12 18:53:02;;;;;;;300.83;247.20;;;;;;;;;;5271548;27;20029;-84
2021/08/12 18:55:32;;;;;;;320.95;251.95;;;;;;;;;;5287720;27;20033;-84
2021/08/12 18:58:01;;;;;;;325.85;251.15;;;;;;;;;;5285741;27;20043;-85
2021/08/12 19:00:29;;;;;;;336.67;249.15;;;;;;;;;;5253149;27;20831;-84
2021/08/12 19:02:59;;;;;;;357.12;248.18;;;;;;;;;;5289556;27;20047;-85
2021/08/12 19:05:27;;;;;;;334.20;244.07;;;;;;;;;;5285491;27;20082;-84
2021/08/12 19:07:56;;;;;;;299.75;220.37;;;;;;;;;;5286183;27;20304;-84
2021/08/12 19:10:25;;;;;;;302.25;252.18;;;;;;;;;;5266757;27;20102;-85
2021/08/12 19:12:54;;;;;;;302.05;221.60;;;;;;;;;;5290024;27;20586;-84
2021/08/12 19:15:23;;;;;;;306.23;237.05;;;;;;;;;;5287020;27;20060;-84
2021/08/12 19:17:51;;;;;;;263.62;195.62;;;;;;;;;;5289620;27;20040;-84
2021/08/12 19:20:20;;;;;;;261.08;193.18;;;;;;;;;;5289270;27;20044;-85
2021/08/12 19:22:50;;;;;;;287.55;204.90;;;;;;;;;;5289380;27;20025;-84
2021/08/12 19:25:18;;;;;;;253.57;201.88;;;;;;;;;;5290228;27;20036;-84
2021/08/12 19:27:49;;;;;;;255.93;195.35;;;;;;;;;;5290116;27;20025;-85
2021/08/12 19:30:20;;;;;;;336.92;235.85;;;;;;;;;;5288520;27;20026;-85
2021/08/12 19:32:48;;;;;;;291.58;208.60;;;;;;;;;;5289961;27;20057;-84
2021/08/12 19:35:16;;;;;;;304.73;215.10;;;;;;;;;;5289828;27;20039;-84
2021/08/12 19:37:45;;;;;;;343.17;233.52;;;;;;;;;;5268227;27;20255;-84
2021/08/12 19:40:14;;;;;;;332.70;231.32;;;;;;;;;;5290168;27;20059;-84
2021/08/12 19:42:43;;;;;;;342.70;244.15;;;;;;;;;;5289263;27;20017;-84
2021/08/12 19:45:13;;;;;;;350.95;235.52;;;;;;;;;;5290104;27;20053;-83
2021/08/12 19:47:41;;;;;;;313.15;208.10;;;;;;;;;;5290191;27;20025;-83
2021/08/12 19:50:11;;;;;;;277.90;199.98;;;;;;;;;;5288369;27;20049;-85
2021/08/12 19:52:40;;;;;;;285.88;200.98;;;;;;;;;;5291172;27;20123;-85
2021/08/12 19:55:21;;;;;;;233.38;182.45;;;;;;;;;;5291594;27;20017;-84
2021/08/12 19:57:50;;;;;;;340.17;242.25;;;;;;;;;;5290210;27;20103;-85
2021/08/12 20:00:20;;;;;;;329.83;236.40;;;;;;;;;;5268811;27;20362;-84
2021/08/12 20:02:48;;;;;;;316.15;239.15;;;;;;;;;;5290655;27;20067;-84
2021/08/12 20:05:17;;;;;;;306.98;231.32;;;;;;;;;;5286282;27;20049;-85
2021/08/12 20:07:46;;;;;;;310.33;229.38;;;;;;;;;;5284963;27;20290;-85
2021/08/12 20:10:15;;;;;;;265.02;233.60;;;;;;;;;;5289179;27;20056;-86
2021/08/12 20:12:43;;;;;;;265.62;189.95;;;;;;;;;;5290964;27;20025;-86
2021/08/12 20:15:12;;;;;;;265.25;182.90;;;;;;;;;;5288616;27;20022;-85
2021/08/12 20:17:41;;;;;;;303.67;200.82;;;;;;;;;;5289284;27;20052;-86
2021/08/12 20:20:09;;;;;;;310.42;209.18;;;;;;;;;;5288314;27;20041;-85
2021/08/12 20:22:38;;;;;;;298.05;193.87;;;;;;;;;;5288969;27;20013;-84
2021/08/12 20:25:07;;;;;;;289.27;187.40;;;;;;;;;;5253818;27;20724;-83
2021/08/12 20:27:35;;;;;;;235.63;169.85;;;;;;;;;;5270177;27;20079;-84
2021/08/12 20:30:04;;;;;;;307.62;196.12;;;;;;;;;;5288809;27;20021;-85
2021/08/12 20:32:33;;;;;;;295.67;191.88;;;;;;;;;;5288594;27;20097;-84
2021/08/12 20:35:01;;;;;;;218.68;156.63;;;;;;;;;;5288229;27;20033;-84
2021/08/12 20:37:29;;;;;;;237.63;189.05;;;;;;;;;;5290106;27;20554;-84
2021/08/12 20:39:58;;;;;;;219.23;166.88;;;;;;;;;;5269349;27;20343;-85
2021/08/12 20:42:27;;;;;;;220.98;171.80;;;;;;;;;;5288710;27;20045;-85
2021/08/12 20:44:55;;;;;;;309.85;219.05;;;;;;;;;;5289983;27;20036;-84
2021/08/12 20:47:24;;;;;;;304.58;210.45;;;;;;;;;;5290094;27;20395;-85
2021/08/12 20:49:52;;;;;;;300.85;208.32;;;;;;;;;;5290172;27;20029;-85
2021/08/12 20:52:20;;;;;;;254.30;182.75;;;;;;;;;;5287136;27;20013;-84
2021/08/12 20:54:49;;;;;;;259.02;187.65;;;;;;;;;;5290003;27;20329;-83
2021/08/12 20:57:18;;;;;;;316.10;218.77;;;;;;;;;;5288602;27;20021;-85
2021/08/12 20:59:46;;;;;;;317.48;220.15;;;;;;;;;;5289521;27;20617;-84
2021/08/12 21:02:15;;;;;;;312.20;214.63;;;;;;;;;;5290327;27;20037;-84
2021/08/12 21:04:44;;;;;;;302.23;203.43;;;;;;;;;;5289244;27;20264;-83
2021/08/12 21:07:12;;;;;;;256.10;165.00;;;;;;;;;;5290646;27;20029;-84
2021/08/12 21:09:41;;;;;;;254.57;165.02;;;;;;;;;;5290356;27;20025;-84
2021/08/12 21:12:09;;;;;;;241.60;164.65;;;;;;;;;;5289867;27;20021;-85
2021/08/12 21:14:38;;;;;;;246.93;162.25;;;;;;;;;;5290975;27;20021;-84
2021/08/12 21:17:06;;;;;;;240.85;153.50;;;;;;;;;;5290340;27;20065;-84
2021/08/12 21:19:35;;;;;;;233.07;159.68;;;;;;;;;;5288625;27;20825;-83
2021/08/12 21:22:04;;;;;;;214.05;152.35;;;;;;;;;;5289282;27;20021;-85
2021/08/12 21:24:33;;;;;;;245.77;172.90;;;;;;;;;;5286779;27;20032;-83
2021/08/12 21:27:01;;;;;;;292.20;199.18;;;;;;;;;;5289056;27;20487;-84